createdAt,value
2022-12-12T00:01:46.122Z,66.15
2022-12-12T00:04:13.946Z,62.78
2022-12-12T00:06:40.612Z,58.50
2022-12-12T00:09:07.224Z,61.42
2022-12-12T00:11:33.654Z,60.63
2022-12-12T00:14:00.257Z,63.33
2022-12-12T00:16:26.787Z,63.22
2022-12-12T00:18:53.823Z,63.78
2022-12-12T00:21:23.494Z,66.13
2022-12-12T00:23:50.805Z,64.55
2022-12-12T00:26:26.338Z,66.45
2022-12-12T00:28:53.665Z,64.15
2022-12-12T00:31:20.361Z,66.80
2022-12-12T00:33:50.090Z,59.83
2022-12-12T00:36:22.177Z,60.28
2022-12-12T00:38:48.986Z,52.83
2022-12-12T00:41:15.639Z,61.38
2022-12-12T00:43:42.264Z,62.10
2022-12-12T00:46:09.376Z,64.18
2022-12-12T00:48:36.459Z,59.75
2022-12-12T00:51:09.184Z,64.90
2022-12-12T00:53:37.323Z,56.28
2022-12-12T00:56:03.969Z,58.40
2022-12-12T00:58:31.627Z,54.90
2022-12-12T01:01:06.240Z,63.22
2022-12-12T01:03:34.196Z,54.72
2022-12-12T01:06:00.742Z,56.42
2022-12-12T01:08:27.781Z,57.72
2022-12-12T01:10:54.713Z,54.50
2022-12-12T01:13:21.960Z,57.53
2022-12-12T01:15:49.175Z,60.60
2022-12-12T01:18:16.456Z,62.60
2022-12-12T01:20:43.314Z,55.08
2022-12-12T01:23:10.044Z,59.05
2022-12-12T01:25:36.956Z,60.95
2022-12-12T01:28:03.932Z,61.80
2022-12-12T01:30:30.656Z,56.85
2022-12-12T01:32:57.335Z,63.22
2022-12-12T01:35:24.110Z,57.00
2022-12-12T01:37:50.919Z,65.10
2022-12-12T01:40:22.532Z,61.03
2022-12-12T01:42:49.682Z,59.38
2022-12-12T01:45:53.836Z,59.55
2022-12-12T01:48:22.442Z,57.00
2022-12-12T01:50:49.931Z,58.35
2022-12-12T01:53:19.433Z,60.45
2022-12-12T01:55:48.182Z,58.08
2022-12-12T01:58:15.217Z,54.10
2022-12-12T02:00:42.386Z,55.45
2022-12-12T02:03:09.405Z,58.67
2022-12-12T02:05:46.804Z,53.17
2022-12-12T02:08:14.684Z,56.42
2022-12-12T02:10:41.154Z,56.95
2022-12-12T02:13:11.793Z,64.78
2022-12-12T02:15:47.971Z,58.80
2022-12-12T02:18:24.674Z,58.33
2022-12-12T02:21:04.964Z,58.38
2022-12-12T02:23:37.258Z,58.13
2022-12-12T02:26:09.603Z,56.50
2022-12-12T02:28:51.414Z,56.72
2022-12-12T02:31:38.368Z,63.45
2022-12-12T02:34:12.259Z,51.90
2022-12-12T02:36:47.696Z,56.05
2022-12-12T02:39:49.338Z,53.55
2022-12-12T02:42:27.090Z,56.55
2022-12-12T02:44:53.435Z,51.97
2022-12-12T02:47:24.372Z,54.78
2022-12-12T02:50:01.035Z,57.88
2022-12-12T02:52:27.992Z,60.85
2022-12-12T02:54:54.803Z,61.58
2022-12-12T02:57:23.979Z,63.40
2022-12-12T02:59:56.780Z,62.55
2022-12-12T03:02:50.519Z,65.20
2022-12-12T03:06:39.380Z,65.78
2022-12-12T03:09:28.702Z,58.78
2022-12-12T03:12:25.197Z,59.08
2022-12-12T03:15:07.179Z,56.75
2022-12-12T03:17:41.782Z,63.70
2022-12-12T03:20:19.774Z,55.88
2022-12-12T03:22:59.914Z,57.35
2022-12-12T03:26:01.497Z,60.40
2022-12-12T03:29:09.130Z,60.90
2022-12-12T03:31:39.982Z,64.13
2022-12-12T03:34:14.905Z,62.38
2022-12-12T03:36:48.877Z,61.00
2022-12-12T03:39:25.312Z,61.90
2022-12-12T03:42:02.002Z,63.55
2022-12-12T03:44:41.258Z,56.13
2022-12-12T03:47:15.788Z,62.70
2022-12-12T03:49:59.999Z,68.55
2022-12-12T03:52:35.920Z,62.00
2022-12-12T03:55:07.686Z,66.93
2022-12-12T03:57:49.570Z,65.22
2022-12-12T04:00:16.626Z,68.20
2022-12-12T04:03:01.875Z,68.88
2022-12-12T04:06:06.172Z,62.13
2022-12-12T04:08:34.428Z,62.20
2022-12-12T04:11:31.054Z,60.97
2022-12-12T04:14:15.987Z,59.40
2022-12-12T04:16:46.238Z,64.32
2022-12-12T04:19:54.882Z,65.03
2022-12-12T04:22:43.542Z,63.40
2022-12-12T04:25:32.673Z,69.03
2022-12-12T04:28:05.620Z,68.63
2022-12-12T04:30:34.907Z,69.32
2022-12-12T04:33:13.058Z,61.30
2022-12-12T04:35:45.484Z,63.80
2022-12-12T04:38:23.926Z,62.15
2022-12-12T04:40:55.011Z,62.00
2022-12-12T04:43:25.010Z,62.75
2022-12-12T04:45:59.465Z,62.83
2022-12-12T04:48:38.558Z,62.45
2022-12-12T04:51:09.934Z,62.00
2022-12-12T04:53:43.107Z,62.17
2022-12-12T04:56:13.600Z,63.97
2022-12-12T04:58:40.753Z,71.78
2022-12-12T05:01:22.779Z,72.38
2022-12-12T05:03:54.326Z,74.07
2022-12-12T05:06:29.098Z,68.70
2022-12-12T05:08:57.635Z,68.68
2022-12-12T05:11:27.224Z,68.25
2022-12-12T05:13:53.709Z,64.38
2022-12-12T05:16:27.731Z,62.42
2022-12-12T05:18:54.643Z,68.60
2022-12-12T05:21:21.430Z,71.57
2022-12-12T05:23:47.926Z,66.60
2022-12-12T05:26:30.765Z,67.90
2022-12-12T05:29:01.044Z,76.05
2022-12-12T05:31:30.431Z,74.65
2022-12-12T05:33:56.894Z,68.57
2022-12-12T05:36:23.670Z,73.30
2022-12-12T05:38:50.196Z,68.15
2022-12-12T05:41:16.735Z,72.97
2022-12-12T05:43:43.159Z,74.15
2022-12-12T05:46:09.609Z,77.18
2022-12-12T05:48:36.085Z,74.78
2022-12-12T05:51:03.570Z,74.15
2022-12-12T05:53:30.658Z,81.28
2022-12-12T05:55:57.133Z,77.65
2022-12-12T05:58:23.596Z,72.93
2022-12-12T06:00:51.158Z,74.30
2022-12-12T06:03:18.151Z,69.78
2022-12-12T06:05:44.868Z,75.85
2022-12-12T06:08:11.585Z,71.70
2022-12-12T06:10:38.134Z,81.10
2022-12-12T06:13:04.583Z,84.97
2022-12-12T06:15:31.247Z,77.47
2022-12-12T06:17:58.603Z,80.43
2022-12-12T06:20:25.516Z,79.20
2022-12-12T06:22:53.799Z,73.32
2022-12-12T06:25:20.881Z,71.95
2022-12-12T06:27:47.431Z,73.88
2022-12-12T06:30:14.428Z,72.30
2022-12-12T06:32:40.895Z,88.45
2022-12-12T06:35:07.913Z,81.18
2022-12-12T06:37:35.022Z,91.10
2022-12-12T06:40:01.528Z,72.13
2022-12-12T06:42:28.031Z,73.15
2022-12-12T06:44:54.482Z,71.80
2022-12-12T06:47:20.909Z,78.53
2022-12-12T06:49:47.362Z,69.93
2022-12-12T06:52:13.882Z,73.90
2022-12-12T06:54:40.390Z,77.05
2022-12-12T06:57:06.788Z,68.25
2022-12-12T06:59:33.581Z,82.10
2022-12-12T07:02:00.981Z,84.65
2022-12-12T07:04:27.574Z,81.20
2022-12-12T07:06:54.257Z,84.82
2022-12-12T07:09:20.871Z,95.70
2022-12-12T07:11:47.357Z,81.97
2022-12-12T07:14:13.823Z,74.10
2022-12-12T07:16:40.556Z,73.95
2022-12-12T07:19:07.265Z,74.70
2022-12-12T07:21:33.701Z,70.65
2022-12-12T07:24:00.182Z,76.45
2022-12-12T07:26:26.655Z,77.88
2022-12-12T07:28:53.186Z,74.22
2022-12-12T07:31:22.744Z,77.85
2022-12-12T07:33:49.400Z,75.88
2022-12-12T07:36:16.550Z,78.47
2022-12-12T07:38:43.422Z,74.95
2022-12-12T07:41:15.980Z,67.78
2022-12-12T07:43:44.925Z,62.30
2022-12-12T07:46:15.514Z,63.70
2022-12-12T07:48:42.783Z,62.22
2022-12-12T07:51:09.503Z,64.60
2022-12-12T07:53:36.369Z,64.03
2022-12-12T07:56:10.236Z,62.90
2022-12-12T07:58:37.314Z,59.88
2022-12-12T08:01:21.545Z,64.25
2022-12-12T08:03:48.956Z,66.28
2022-12-12T08:06:16.880Z,63.60
2022-12-12T08:08:44.933Z,64.65
2022-12-12T08:11:13.955Z,62.05
2022-12-12T08:13:41.676Z,62.33
2022-12-12T08:16:14.832Z,61.70
2022-12-12T08:18:41.444Z,56.55
2022-12-12T08:21:12.225Z,70.60
2022-12-12T08:23:39.770Z,25.35
2022-12-12T08:26:09.103Z,51.28
2022-12-12T08:28:36.019Z,21.00
2022-12-12T08:31:02.994Z,59.13
2022-12-12T08:33:30.506Z,37.97
2022-12-12T08:35:56.996Z,29.45
2022-12-12T08:38:23.456Z,6.07
2022-12-12T08:40:50.199Z,12.68
2022-12-12T08:43:16.796Z,37.03
2022-12-12T08:45:43.329Z,61.70
2022-12-12T08:48:12.126Z,56.65
2022-12-12T08:50:41.169Z,63.88
2022-12-12T08:53:07.687Z,31.88
2022-12-12T08:55:34.194Z,39.35
2022-12-12T08:58:00.717Z,47.80
2022-12-12T09:00:27.332Z,60.58
2022-12-12T09:02:53.971Z,67.82
2022-12-12T09:05:20.602Z,66.07
2022-12-12T09:07:47.215Z,69.68
2022-12-12T09:10:13.830Z,49.15
2022-12-12T09:12:42.026Z,66.75
2022-12-12T09:15:09.831Z,55.60
2022-12-12T09:17:36.582Z,62.05
2022-12-12T09:20:03.976Z,60.58
2022-12-12T09:22:30.512Z,64.25
2022-12-12T09:24:56.990Z,42.30
2022-12-12T09:27:23.608Z,54.53
2022-12-12T09:29:50.130Z,65.78
2022-12-12T09:32:19.958Z,22.13
2022-12-12T09:34:50.841Z,66.67
2022-12-12T09:37:17.306Z,60.35
2022-12-12T09:39:43.763Z,72.93
2022-12-12T09:42:32.019Z,24.35
2022-12-12T09:45:07.837Z,63.45
2022-12-12T09:47:40.671Z,45.47
2022-12-12T09:50:22.157Z,72.85
2022-12-12T09:52:49.510Z,66.47
2022-12-12T09:55:57.894Z,44.83
2022-12-12T09:58:30.843Z,65.75
2022-12-12T10:01:15.864Z,54.40
2022-12-12T10:03:52.954Z,29.52
2022-12-12T10:06:38.480Z,57.90
2022-12-12T10:09:29.598Z,41.90
2022-12-12T10:11:59.286Z,53.55
2022-12-12T10:14:39.583Z,65.28
2022-12-12T10:17:13.895Z,63.45
2022-12-12T10:19:59.510Z,67.87
2022-12-12T10:25:04.389Z,43.47
2022-12-12T10:27:30.984Z,52.47
2022-12-12T10:30:07.060Z,51.03
2022-12-12T10:32:54.433Z,30.77
2022-12-12T10:35:26.810Z,56.67
2022-12-12T10:38:13.579Z,36.65
2022-12-12T10:41:00.241Z,10.73
2022-12-12T10:43:34.497Z,15.85
2022-12-12T10:46:15.655Z,49.13
2022-12-12T10:48:42.742Z,19.27
2022-12-12T10:51:15.338Z,37.15
2022-12-12T10:53:42.392Z,58.53
2022-12-12T10:56:20.468Z,53.03
2022-12-12T10:58:54.104Z,39.35
2022-12-12T11:04:22.862Z,53.70
2022-12-12T11:06:52.100Z,53.05
2022-12-12T11:09:20.218Z,46.10
2022-12-12T11:12:04.982Z,42.63
2022-12-12T11:14:47.325Z,51.83
2022-12-12T11:17:29.296Z,51.20
2022-12-12T11:19:59.094Z,49.42
2022-12-12T11:22:26.812Z,51.05
2022-12-12T11:24:53.930Z,45.05
2022-12-12T11:27:31.433Z,45.90
2022-12-12T11:30:04.497Z,48.95
2022-12-12T11:32:41.789Z,28.73
2022-12-12T11:35:24.482Z,41.75
2022-12-12T11:37:58.120Z,48.13
2022-12-12T11:40:31.071Z,41.63
2022-12-12T11:43:18.898Z,42.58
2022-12-12T11:46:08.257Z,43.30
2022-12-12T11:48:39.778Z,30.70
2022-12-12T11:51:06.584Z,39.72
2022-12-12T11:53:36.961Z,41.58
2022-12-12T11:56:12.568Z,36.42
2022-12-12T11:58:48.128Z,28.88
2022-12-12T12:01:43.549Z,23.02
2022-12-12T12:04:19.390Z,39.15
2022-12-12T12:07:06.714Z,34.45
2022-12-12T12:09:44.181Z,36.42
2022-12-12T12:12:52.928Z,34.90
2022-12-12T12:15:25.099Z,37.42
2022-12-12T12:18:05.679Z,31.85
2022-12-12T12:20:38.484Z,33.65
2022-12-12T12:23:14.672Z,31.75
2022-12-12T12:26:01.579Z,33.90
2022-12-12T12:28:39.282Z,33.08
2022-12-12T12:31:14.790Z,25.60
2022-12-12T12:33:59.550Z,31.65
2022-12-12T12:37:02.255Z,30.63
2022-12-12T12:39:53.571Z,33.70
2022-12-12T12:42:26.105Z,31.02
2022-12-12T12:45:03.493Z,30.85
2022-12-12T12:48:10.740Z,31.40
2022-12-12T12:50:43.639Z,32.47
2022-12-12T12:53:36.851Z,29.10
2022-12-12T12:56:14.331Z,32.53
2022-12-12T12:58:46.108Z,30.92
2022-12-12T13:01:18.261Z,36.30
2022-12-12T13:03:56.406Z,31.00
2022-12-12T13:06:54.927Z,32.17
2022-12-12T13:09:40.278Z,29.90
2022-12-12T13:12:15.414Z,29.48
2022-12-12T13:15:14.599Z,29.38
2022-12-12T13:18:01.640Z,30.30
2022-12-12T13:20:34.766Z,28.42
2022-12-12T13:23:23.425Z,33.47
2022-12-12T13:26:01.601Z,36.10
2022-12-12T13:28:34.351Z,30.00
2022-12-12T13:31:27.836Z,26.70
2022-12-12T13:34:01.290Z,31.40
2022-12-12T13:36:40.546Z,28.33
2022-12-12T13:39:21.299Z,28.08
2022-12-12T13:42:03.000Z,29.75
2022-12-12T13:44:44.924Z,31.70
2022-12-12T13:47:23.283Z,27.58
2022-12-12T13:49:55.550Z,30.80
2022-12-12T13:52:27.841Z,27.83
2022-12-12T13:55:13.622Z,29.95
2022-12-12T13:58:02.190Z,29.92
2022-12-12T14:00:31.340Z,28.75
2022-12-12T14:03:03.886Z,29.63
2022-12-12T14:05:50.978Z,29.05
2022-12-12T14:08:18.311Z,31.33
2022-12-12T14:11:02.897Z,29.42
2022-12-12T14:13:45.183Z,28.40
2022-12-12T14:16:14.658Z,29.30
2022-12-12T14:18:54.020Z,27.98
2022-12-12T14:21:35.634Z,31.13
2022-12-12T14:24:34.164Z,32.42
2022-12-12T14:27:04.555Z,27.85
2022-12-12T14:29:44.832Z,33.80
2022-12-12T14:32:11.209Z,53.00
2022-12-12T14:35:20.497Z,63.72
2022-12-12T14:38:05.101Z,48.20
2022-12-12T14:40:35.232Z,34.40
2022-12-12T14:43:30.515Z,33.20
2022-12-12T14:45:59.911Z,31.33
2022-12-12T14:48:27.648Z,31.83
2022-12-12T14:51:04.368Z,33.10
2022-12-12T14:53:38.613Z,28.30
2022-12-12T14:56:13.391Z,32.30
2022-12-12T14:58:46.949Z,39.35
2022-12-12T15:01:29.184Z,30.88
2022-12-12T15:03:58.985Z,30.45
2022-12-12T15:06:34.514Z,31.48
2022-12-12T15:09:26.123Z,36.63
2022-12-12T15:11:55.361Z,38.72
2022-12-12T15:14:27.514Z,37.28
2022-12-12T15:17:06.908Z,37.03
2022-12-12T15:19:50.324Z,34.40
2022-12-12T15:22:27.619Z,33.28
2022-12-12T15:24:56.648Z,32.80
2022-12-12T15:27:45.988Z,35.78
2022-12-12T15:30:23.599Z,28.60
2022-12-12T15:32:50.590Z,34.40
2022-12-12T15:35:23.040Z,47.38
2022-12-12T15:37:59.732Z,33.67
2022-12-12T15:40:29.909Z,43.03
2022-12-12T15:42:59.996Z,35.15
2022-12-12T15:45:32.270Z,34.45
2022-12-12T15:47:59.624Z,33.78
2022-12-12T15:50:28.261Z,36.10
2022-12-12T15:53:01.104Z,33.30
2022-12-12T15:55:28.159Z,32.42
2022-12-12T15:57:54.873Z,39.13
2022-12-12T16:00:34.582Z,33.25
2022-12-12T16:03:05.728Z,40.97
2022-12-12T16:05:36.178Z,47.60
2022-12-12T16:08:32.095Z,53.35
2022-12-12T16:11:01.729Z,40.35
2022-12-12T16:13:39.613Z,40.50
2022-12-12T16:16:35.945Z,43.58
2022-12-12T16:19:04.223Z,47.38
2022-12-12T16:21:30.968Z,40.67
2022-12-12T16:24:12.891Z,39.67
2022-12-12T16:26:39.335Z,42.47
2022-12-12T16:29:05.837Z,50.42
2022-12-12T16:31:32.364Z,43.50
2022-12-12T16:34:03.472Z,44.90
2022-12-12T16:36:30.069Z,41.67
2022-12-12T16:38:56.844Z,49.55
2022-12-12T16:41:23.383Z,47.05
2022-12-12T16:43:49.850Z,49.58
2022-12-12T16:46:23.847Z,39.15
2022-12-12T16:48:51.328Z,41.22
2022-12-12T16:51:25.455Z,41.00
2022-12-12T16:53:51.920Z,40.72
2022-12-12T16:56:18.338Z,42.63
2022-12-12T16:58:44.788Z,41.83
2022-12-12T17:01:11.991Z,43.58
2022-12-12T17:03:38.516Z,45.67
2022-12-12T17:06:05.257Z,45.85
2022-12-12T17:08:31.738Z,43.90
2022-12-12T17:11:10.688Z,54.50
2022-12-12T17:13:40.905Z,52.13
2022-12-12T17:16:07.559Z,50.10
2022-12-12T17:18:34.006Z,45.78
2022-12-12T17:21:00.499Z,46.92
2022-12-12T17:23:30.150Z,43.70
2022-12-12T17:26:03.050Z,42.25
2022-12-12T17:28:32.344Z,48.25
2022-12-12T17:30:58.965Z,54.53
2022-12-12T17:33:25.814Z,52.45
2022-12-12T17:36:04.460Z,72.65
2022-12-12T17:38:31.651Z,54.28
2022-12-12T17:41:01.822Z,49.25
2022-12-12T17:43:28.357Z,46.65
2022-12-12T17:46:03.947Z,49.65
2022-12-12T17:48:32.519Z,46.55
2022-12-12T17:51:01.103Z,54.78
2022-12-12T17:53:32.299Z,55.78
2022-12-12T17:56:00.989Z,54.42
2022-12-12T17:58:36.533Z,70.22
2022-12-12T18:01:19.493Z,51.35
2022-12-12T18:03:46.941Z,62.85
2022-12-12T18:06:14.754Z,63.15
2022-12-12T18:08:41.823Z,64.30
2022-12-12T18:11:11.328Z,60.10
2022-12-12T18:13:39.571Z,62.80
2022-12-12T18:16:07.770Z,62.67
2022-12-12T18:18:34.649Z,74.82
2022-12-12T18:21:58.978Z,66.00
2022-12-12T18:24:16.576Z,70.28
2022-12-12T18:26:43.207Z,59.47
2022-12-12T18:29:13.115Z,57.38
2022-12-12T18:31:39.808Z,78.10
2022-12-12T18:34:06.510Z,61.28
2022-12-12T18:36:33.113Z,63.88
2022-12-12T18:39:03.997Z,63.17
2022-12-12T18:41:31.712Z,61.25
2022-12-12T18:43:58.679Z,55.55
2022-12-12T18:46:27.224Z,60.33
2022-12-12T18:48:53.773Z,56.58
2022-12-12T18:51:23.340Z,56.83
2022-12-12T18:53:51.814Z,62.05
2022-12-12T18:56:21.099Z,76.22
2022-12-12T18:58:47.954Z,73.68
2022-12-12T19:01:17.297Z,75.70
2022-12-12T19:03:46.054Z,66.82
2022-12-12T19:06:15.605Z,81.95
2022-12-12T19:08:42.512Z,81.65
2022-12-12T19:11:10.425Z,73.00
2022-12-12T19:13:38.002Z,75.45
2022-12-12T19:16:11.128Z,63.85
2022-12-12T19:18:38.709Z,60.35
2022-12-12T19:21:10.728Z,65.18
2022-12-12T19:23:37.556Z,62.33
2022-12-12T19:26:07.726Z,64.72
2022-12-12T19:28:35.096Z,62.42
2022-12-12T19:31:11.346Z,64.90
2022-12-12T19:33:38.515Z,65.68
2022-12-12T19:36:09.960Z,62.85
2022-12-12T19:38:36.425Z,70.90
2022-12-12T19:41:04.942Z,68.50
2022-12-12T19:43:31.625Z,70.35
2022-12-12T19:46:11.140Z,64.38
2022-12-12T19:48:38.462Z,69.60
2022-12-12T19:51:17.340Z,74.15
2022-12-12T19:53:52.550Z,74.65
2022-12-12T19:56:30.597Z,76.68
2022-12-12T19:58:57.646Z,77.75
2022-12-12T20:01:28.431Z,79.72
2022-12-12T20:04:05.435Z,76.05
2022-12-12T20:06:42.000Z,85.40
2022-12-12T20:09:09.102Z,78.07
2022-12-12T20:11:36.869Z,71.63
2022-12-12T20:14:03.709Z,71.35
2022-12-12T20:16:30.626Z,74.57
2022-12-12T20:18:57.965Z,76.75
2022-12-12T20:24:15.466Z,82.47
2022-12-12T20:26:42.019Z,75.40
2022-12-12T20:29:09.022Z,80.85
2022-12-12T20:31:39.365Z,74.88
2022-12-12T20:34:05.876Z,75.80
2022-12-12T20:36:34.428Z,73.93
2022-12-12T20:39:04.724Z,71.60
2022-12-12T20:41:34.745Z,76.38
2022-12-12T20:44:01.369Z,76.25
2022-12-12T20:46:33.398Z,75.22
2022-12-12T20:49:01.468Z,79.22
2022-12-12T20:51:54.689Z,86.90
2022-12-12T20:54:21.456Z,77.30
2022-12-12T20:56:51.842Z,82.07
2022-12-12T20:59:18.276Z,82.82
2022-12-12T21:01:44.900Z,87.28
2022-12-12T21:04:11.564Z,73.32
2022-12-12T21:06:48.102Z,76.43
2022-12-12T21:09:22.816Z,73.13
2022-12-12T21:11:52.070Z,75.78
2022-12-12T21:14:18.542Z,87.93
2022-12-12T21:16:45.113Z,78.45
2022-12-12T21:19:14.067Z,75.53
2022-12-12T21:21:43.061Z,72.63
2022-12-12T21:24:12.222Z,82.55
2022-12-12T21:26:38.980Z,82.20
2022-12-12T21:29:05.843Z,78.45
2022-12-12T21:31:36.294Z,84.35
2022-12-12T21:34:04.147Z,84.55
2022-12-12T21:36:30.958Z,77.00
2022-12-12T21:38:59.090Z,78.50
2022-12-12T21:41:26.946Z,81.20
2022-12-12T21:43:55.082Z,76.95
2022-12-12T21:46:24.131Z,85.40
2022-12-12T21:49:11.442Z,91.70
2022-12-12T21:51:40.035Z,80.90
2022-12-12T21:54:07.905Z,84.57
2022-12-12T21:56:34.581Z,80.97
2022-12-12T21:59:01.103Z,70.65
2022-12-12T22:01:27.944Z,78.82
2022-12-12T22:03:54.942Z,71.80
2022-12-12T22:06:24.523Z,81.50
2022-12-12T22:08:53.576Z,73.57
2022-12-12T22:11:40.275Z,85.53
2022-12-12T22:14:07.572Z,84.82
2022-12-12T22:16:34.766Z,82.47
2022-12-12T22:19:06.050Z,77.05
2022-12-12T22:21:33.276Z,82.72
2022-12-12T22:23:59.723Z,79.78
2022-12-12T22:26:35.162Z,83.05
2022-12-12T22:29:04.963Z,84.35
2022-12-12T22:31:34.962Z,81.43
2022-12-12T22:34:04.307Z,83.53
2022-12-12T22:36:33.118Z,80.82
2022-12-12T22:39:00.374Z,88.18
2022-12-12T22:41:28.918Z,89.20
2022-12-12T22:44:03.598Z,89.03
2022-12-12T22:46:30.323Z,85.70
2022-12-12T22:48:59.501Z,81.47
2022-12-12T22:51:33.300Z,79.93
2022-12-12T22:54:02.485Z,77.77
2022-12-12T22:56:30.367Z,74.93
2022-12-12T22:58:56.937Z,84.15
2022-12-12T23:01:24.607Z,83.93
2022-12-12T23:03:52.194Z,67.80
2022-12-12T23:06:36.945Z,69.80
2022-12-12T23:09:14.222Z,84.05
2022-12-12T23:11:40.923Z,82.07
2022-12-12T23:14:11.171Z,78.10
2022-12-12T23:16:37.745Z,77.38
2022-12-12T23:19:05.194Z,79.20
2022-12-12T23:21:31.908Z,80.88
2022-12-12T23:23:58.520Z,75.47
2022-12-12T23:26:29.937Z,77.00
2022-12-12T23:28:57.639Z,77.43
2022-12-12T23:31:29.898Z,77.82
2022-12-12T23:34:01.888Z,74.28
2022-12-12T23:36:28.725Z,82.95
2022-12-12T23:38:57.437Z,106.35
2022-12-12T23:41:24.461Z,82.63
2022-12-12T23:43:51.326Z,85.82
2022-12-12T23:46:33.239Z,66.95
2022-12-12T23:49:02.263Z,79.82
2022-12-12T23:51:31.083Z,81.35
2022-12-12T23:53:59.342Z,70.00
2022-12-12T23:56:26.665Z,70.90
2022-12-12T23:58:54.586Z,82.32
